Time;durP1;ratioP1;P1;durP2;ratioP2;P2;SDS_P1;SDS_P2;PMS_P1;PMS_P2;Temp;Humidity;BMP_temperature;BMP_pressure;BME280_temperature;BME280_humidity;BME280_pressure;Samples;Min_cycle;Max_cycle;Signal;HPM_P1;HPM_P2
2022/01/12 00:00:53;;;;;;;42.70;17.00;;;;;;;-4.68;83.35;100253.90;106217;1278;25495;-82
2022/01/12 00:03:19;;;;;;;54.50;18.10;;;;;;;-4.74;83.80;100252.68;106250;1277;24257;-81
2022/01/12 00:05:46;;;;;;;53.30;22.10;;;;;;;-4.74;83.84;100258.90;106171;1278;138811;-81
2022/01/12 00:08:12;;;;;;;43.70;17.80;;;;;;;-4.76;83.81;100254.56;106338;1277;22680;-82
2022/01/12 00:10:39;;;;;;;41.00;17.30;;;;;;;-4.77;84.10;100256.75;106285;1277;138106;-82
2022/01/12 00:13:06;;;;;;;47.50;17.80;;;;;;;-4.75;84.16;100257.50;106074;1279;22582;-82
2022/01/12 00:15:32;;;;;;;42.00;16.80;;;;;;;-4.74;84.04;100255.86;106234;1278;25345;-81
2022/01/12 00:17:58;;;;;;;43.30;16.00;;;;;;;-4.76;84.10;100260.41;106002;1279;138224;-83
2022/01/12 00:20:24;;;;;;;52.00;19.90;;;;;;;-4.78;83.97;100263.00;106016;1277;22579;-81
2022/01/12 00:22:52;;;;;;;46.90;19.60;;;;;;;-4.76;84.30;100262.32;106047;1277;138430;-80
2022/01/12 00:33:20;;;;;;;52.60;20.00;;;;;;;-4.60;84.47;100265.55;106255;1277;25410;-80
2022/01/12 00:35:53;;;;;;;52.10;19.40;;;;;;;-4.58;84.81;100263.48;106188;1277;138143;-80
2022/01/12 00:38:23;;;;;;;55.40;21.20;;;;;;;-4.56;84.52;100259.09;106296;1277;25493;-80
2022/01/12 00:40:52;;;;;;;49.30;20.20;;;;;;;-4.55;84.32;100260.98;106144;1277;139124;-80
2022/01/12 00:43:21;;;;;;;48.20;18.60;;;;;;;-4.52;84.29;100258.44;106092;1279;22722;-80
2022/01/12 00:46:02;;;;;;;54.20;19.70;;;;;;;-4.44;84.51;100257.89;106105;1279;22566;-81
2022/01/12 00:48:28;;;;;;;49.90;19.20;;;;;;;-4.37;84.80;100260.45;106056;1278;138056;-80
2022/01/12 00:50:55;;;;;;;48.20;19.70;;;;;;;-4.30;84.45;100256.23;106146;1277;22541;-80
2022/01/12 00:53:21;;;;;;;43.50;18.50;;;;;;;-4.27;83.85;100258.50;106013;1277;138634;-80
2022/01/12 00:55:47;;;;;;;46.70;20.10;;;;;;;-4.30;83.35;100254.09;106358;1277;22571;-82
2022/01/12 00:58:13;;;;;;;44.30;20.40;;;;;;;-4.32;83.72;100255.30;106141;1277;138367;-82
2022/01/12 01:00:40;;;;;;;55.30;21.80;;;;;;;-4.29;83.75;100256.18;106356;1277;22588;-80
2022/01/12 01:03:08;;;;;;;48.40;19.00;;;;;;;-4.22;84.29;100259.09;106282;1279;25373;-80
2022/01/12 01:05:35;;;;;;;55.90;20.00;;;;;;;-4.14;84.09;100253.73;106087;1279;138166;-81
2022/01/12 01:08:02;;;;;;;50.70;20.50;;;;;;;-4.11;83.61;100249.92;106247;1279;22559;-80
2022/01/12 01:13:43;;;;;;;50.10;19.20;;;;;;;-4.06;83.53;100257.05;106270;1278;29787;-80
2022/01/12 01:16:23;;;;;;;53.80;21.90;;;;;;;-4.11;82.76;100257.09;106094;1277;22637;-81
2022/01/12 01:27:08;;;;;;;58.70;22.10;;;;;;;-4.10;83.40;100262.67;106368;1277;22639;-81
2022/01/12 01:29:34;;;;;;;53.50;21.50;;;;;;;-4.11;83.34;100261.15;106433;1279;138329;-81
2022/01/12 01:32:01;;;;;;;58.20;21.20;;;;;;;-4.09;83.56;100263.35;107173;1277;27531;-81
2022/01/12 01:34:28;;;;;;;60.60;23.20;;;;;;;-4.08;83.69;100265.52;106990;1277;23386;-81
2022/01/12 01:36:56;;;;;;;61.70;22.60;;;;;;;-4.07;83.94;100261.06;106415;1277;137750;-81
2022/01/12 01:39:27;;;;;;;67.50;25.60;;;;;;;-4.05;83.86;100253.59;106432;1279;22551;-81
2022/01/12 01:42:05;;;;;;;63.40;24.10;;;;;;;-3.99;84.17;100255.87;106566;1278;139083;-81
2022/01/12 01:53:17;;;;;;;57.90;23.10;;;;;;;-3.93;83.76;100251.35;106576;1277;29581;-81
2022/01/12 01:55:41;;;;;;;56.90;20.80;;;;;;;-3.77;83.33;100247.73;106466;1279;22552;-82
2022/01/12 01:58:07;;;;;;;62.90;24.70;;;;;;;-3.82;82.98;100250.94;106357;1278;22678;-83
2022/01/12 02:00:37;;;;;;;60.00;23.10;;;;;;;-3.86;83.13;100246.96;106341;1277;138273;-81
2022/01/12 02:03:05;;;;;;;;;;;;;;;-3.86;83.04;100248.06;106362;1279;22551;-81
2022/01/12 02:05:39;;;;;;;57.50;22.90;;;;;;;-3.84;83.12;100251.30;106354;1278;124971;-81
2022/01/12 02:08:13;;;;;;;62.20;22.80;;;;;;;-3.81;83.54;100248.95;106368;1278;25479;-81
2022/01/12 02:10:57;;;;;;;61.50;23.10;;;;;;;-3.79;83.37;100243.12;106229;1278;138382;-81
2022/01/12 02:13:26;;;;;;;50.50;22.30;;;;;;;-3.80;83.46;100252.56;106725;1279;25275;-81
2022/01/12 02:15:54;;;;;;;59.60;23.30;;;;;;;-3.84;83.45;100247.20;106305;1277;26648;-81
2022/01/12 02:40:39;;;;;;;51.40;19.40;;;;;;;-4.03;82.92;100252.06;106374;1279;22585;-81
2022/01/12 02:53:44;;;;;;;20.90;9.30;;;;;;;-4.08;81.69;100255.63;106306;1277;138066;-81
2022/01/12 02:56:14;;;;;;;19.50;8.00;;;;;;;-4.07;81.59;100252.02;106850;1278;22686;-80
2022/01/12 02:58:42;;;;;;;20.10;8.50;;;;;;;-4.08;81.02;100252.09;106470;1279;22570;-81
2022/01/12 03:04:02;;;;;;;15.10;6.90;;;;;;;-4.12;80.68;100257.13;106303;1277;22611;-81
2022/01/12 03:06:33;;;;;;;19.40;9.20;;;;;;;-4.19;80.18;100252.80;106209;1277;138200;-81
2022/01/12 03:09:01;;;;;;;22.90;9.00;;;;;;;-4.21;80.45;100256.47;106109;1279;24291;-80
2022/01/12 03:11:28;;;;;;;19.10;8.30;;;;;;;-4.19;80.42;100255.14;106279;1279;139015;-81
2022/01/12 03:14:00;;;;;;;22.10;8.60;;;;;;;-4.19;80.29;100253.70;106317;1277;24517;-82
2022/01/12 03:16:28;;;;;;;20.10;8.20;;;;;;;-4.17;80.20;100253.42;106152;1277;24273;-81
2022/01/12 03:19:00;;;;;;;17.80;7.80;;;;;;;-4.16;80.16;100252.08;106301;1277;138184;-81
2022/01/12 03:21:31;;;;;;;15.60;7.70;;;;;;;-4.15;80.30;100248.69;106516;1277;26510;-81
2022/01/12 03:23:58;;;;;;;20.00;9.50;;;;;;;-4.13;80.40;100254.17;106107;1277;138458;-82
2022/01/12 03:26:28;;;;;;;20.10;8.70;;;;;;;-4.11;80.33;100250.36;106227;1278;25719;-81
2022/01/12 03:28:56;;;;;;;18.80;7.00;;;;;;;-4.13;79.47;100247.08;106063;1279;138268;-81
2022/01/12 03:31:26;;;;;;;22.00;7.40;;;;;;;-4.19;79.13;100245.38;106448;1277;25277;-81
2022/01/12 03:33:59;;;;;;;17.40;7.60;;;;;;;-4.26;78.82;100244.09;106247;1277;25405;-81
2022/01/12 03:38:57;;;;;;;13.30;6.30;;;;;;;-4.34;79.56;100241.84;106411;1279;22563;-81
2022/01/12 03:41:26;;;;;;;18.00;7.70;;;;;;;-4.38;79.31;100238.34;106127;1279;138475;-81
2022/01/12 03:43:55;;;;;;;19.60;7.30;;;;;;;-4.42;79.31;100240.41;106321;1277;23540;-80
2022/01/12 03:46:28;;;;;;;20.90;7.70;;;;;;;-4.51;79.05;100238.55;106316;1279;22543;-81
2022/01/12 03:48:54;;;;;;;20.50;8.90;;;;;;;-4.58;79.29;100242.36;106164;1280;139308;-81
2022/01/12 03:51:21;;;;;;;18.10;8.60;;;;;;;-4.57;79.89;100241.59;106250;1277;22582;-81
2022/01/12 03:53:47;;;;;;;18.10;7.60;;;;;;;-4.53;80.01;100247.71;106164;1280;138306;-81
2022/01/12 03:56:13;;;;;;;23.80;8.90;;;;;;;-4.47;80.01;100246.98;106080;1277;23616;-80
2022/01/12 03:58:41;;;;;;;19.70;8.70;;;;;;;-4.44;79.99;100246.75;106012;1277;24224;-80
2022/01/12 04:01:09;;;;;;;18.50;9.30;;;;;;;-4.41;80.24;100249.56;106061;1277;138563;-84
2022/01/12 04:03:43;;;;;;;18.10;8.50;;;;;;;-4.36;79.92;100249.77;105990;1277;24457;-81
2022/01/12 04:08:54;;;;;;;18.20;8.60;;;;;;;-4.35;79.30;100246.67;105918;1277;22570;-83
2022/01/12 04:11:23;;;;;;;19.40;8.40;;;;;;;-4.38;79.14;100247.05;105804;1279;138190;-80
2022/01/12 04:13:50;;;;;;;21.10;8.50;;;;;;;-4.40;79.38;100245.52;106002;1279;24460;-81
2022/01/12 04:16:17;;;;;;;17.00;7.50;;;;;;;-4.41;79.15;100247.21;106068;1277;23070;-81
2022/01/12 04:18:43;;;;;;;22.50;9.50;;;;;;;-4.43;79.23;100256.05;105856;1279;138983;-81
2022/01/12 04:21:12;;;;;;;18.20;8.70;;;;;;;-4.43;79.24;100254.83;105999;1279;22548;-81
2022/01/12 04:23:40;;;;;;;19.80;7.90;;;;;;;-4.41;79.12;100258.39;105874;1279;138759;-81
2022/01/12 04:26:11;;;;;;;18.30;8.00;;;;;;;-4.37;78.87;100262.23;105940;1278;25685;-81
2022/01/12 04:28:40;;;;;;;18.10;9.20;;;;;;;-4.37;79.05;100263.67;105969;1278;25607;-81
2022/01/12 04:31:08;;;;;;;18.50;8.00;;;;;;;-4.40;79.00;100266.98;105920;1279;138707;-83
2022/01/12 04:33:36;;;;;;;16.10;7.30;;;;;;;-4.43;78.91;100266.48;105884;1277;22701;-83
2022/01/12 04:36:04;;;;;;;19.10;7.80;;;;;;;-4.49;78.86;100267.08;105952;1277;137936;-81
2022/01/12 04:38:33;;;;;;;17.90;6.90;;;;;;;-4.56;78.73;100266.86;106096;1277;25524;-80
2022/01/12 04:41:04;;;;;;;18.90;8.00;;;;;;;-4.61;78.94;100265.04;105823;1277;138297;-80
2022/01/12 04:43:32;;;;;;;18.20;8.20;;;;;;;-4.64;78.51;100267.36;105981;1277;22621;-80
2022/01/12 04:48:52;;;;;;;21.50;8.80;;;;;;;-4.67;77.73;100271.52;105849;1278;138154;-80
2022/01/12 04:51:19;;;;;;;18.80;7.80;;;;;;;-4.66;78.11;100273.77;105804;1278;25553;-83
2022/01/12 04:53:46;;;;;;;17.50;6.90;;;;;;;-4.68;78.40;100275.27;105535;1279;138515;-82
2022/01/12 04:56:13;;;;;;;12.40;5.80;;;;;;;-4.72;78.04;100276.29;105913;1277;23066;-81
2022/01/12 04:58:40;;;;;;;9.50;4.20;;;;;;;-4.76;78.03;100279.20;106130;1277;22540;-81
2022/01/12 05:01:11;;;;;;;18.40;7.60;;;;;;;-4.83;77.90;100281.98;105994;1279;137776;-81
2022/01/12 05:14:43;;;;;;;18.20;7.50;;;;;;;-5.13;78.39;100282.13;106251;1278;24297;-82
2022/01/12 05:17:11;;;;;;;17.20;7.20;;;;;;;-5.18;78.59;100276.98;106120;1278;138628;-82
2022/01/12 05:19:37;;;;;;;16.10;7.10;;;;;;;-5.20;78.44;100278.55;106294;1277;25043;-81
2022/01/12 05:22:04;;;;;;;25.40;10.40;;;;;;;-5.22;78.78;100282.70;106278;1278;22610;-82
2022/01/12 05:24:32;;;;;;;23.90;9.30;;;;;;;-5.20;79.02;100285.60;106098;1280;137918;-80
2022/01/12 05:26:59;;;;;;;22.80;8.20;;;;;;;-5.21;78.89;100287.93;106322;1277;25317;-80
2022/01/12 05:29:26;;;;;;;26.30;12.00;;;;;;;-5.24;78.67;100290.45;106090;1277;139061;-80
2022/01/12 05:31:52;;;;;;;20.70;9.30;;;;;;;-5.27;78.71;100289.43;106196;1277;22550;-80
2022/01/12 05:34:20;;;;;;;25.90;10.80;;;;;;;-5.29;78.85;100295.05;106168;1277;22791;-81
2022/01/12 05:36:47;;;;;;;22.50;10.60;;;;;;;-5.30;78.90;100294.23;106261;1277;138839;-81
2022/01/12 05:39:14;;;;;;;16.10;7.50;;;;;;;-5.31;79.33;100291.07;106173;1278;22592;-81
2022/01/12 05:41:40;;;;;;;23.50;9.60;;;;;;;-5.29;79.70;100294.51;106047;1280;138500;-81
2022/01/12 05:44:08;;;;;;;26.30;11.90;;;;;;;-5.28;79.54;100290.16;106367;1278;24249;-81
2022/01/12 05:46:37;;;;;;;21.20;9.40;;;;;;;-5.27;79.58;100292.95;106465;1277;22721;-81
2022/01/12 05:51:55;;;;;;;28.80;10.70;;;;;;;-5.30;79.35;100300.20;106322;1278;25323;-82
2022/01/12 05:54:22;;;;;;;27.60;11.80;;;;;;;-5.29;79.49;100305.63;106036;1277;139104;-80
2022/01/12 05:56:49;;;;;;;20.20;9.30;;;;;;;-5.23;79.47;100303.83;106339;1278;22604;-80
2022/01/12 05:59:16;;;;;;;23.70;10.70;;;;;;;-5.17;79.64;100307.72;106522;1277;137994;-81
2022/01/12 06:01:44;;;;;;;37.00;14.30;;;;;;;-5.13;79.51;100310.81;106248;1277;22704;-80
2022/01/12 06:04:10;;;;;;;29.60;13.40;;;;;;;-5.09;79.54;100313.73;106138;1280;25659;-80
2022/01/12 06:06:37;;;;;;;31.10;12.80;;;;;;;-5.00;79.90;100310.02;106337;1277;138673;-80
2022/01/12 06:09:03;;;;;;;24.90;11.40;;;;;;;-4.94;80.06;100313.66;106150;1278;24302;-80
2022/01/12 06:11:31;;;;;;;24.90;12.30;;;;;;;-4.88;79.72;100314.20;106364;1277;141344;-80
2022/01/12 06:13:59;;;;;;;25.80;11.60;;;;;;;-4.85;79.78;100315.05;106387;1277;22698;-80
2022/01/12 06:16:28;;;;;;;24.20;11.20;;;;;;;-4.83;79.61;100318.09;106153;1277;23935;-81
2022/01/12 06:18:56;;;;;;;28.80;10.80;;;;;;;-4.82;79.47;100316.77;106211;1276;138346;-81
2022/01/12 06:21:23;;;;;;;31.90;14.20;;;;;;;-4.87;78.71;100320.10;106116;1277;22579;-81
2022/01/12 06:24:16;;;;;;;27.00;11.90;;;;;;;-4.86;79.40;100328.05;106568;1278;138916;-81
2022/01/12 06:26:43;;;;;;;22.20;10.90;;;;;;;-4.88;78.06;100330.64;106140;1279;22719;-82
2022/01/12 06:31:38;;;;;;;22.50;11.20;;;;;;;-5.04;77.08;100332.41;106302;1279;22576;-81
2022/01/12 06:34:04;;;;;;;25.80;10.60;;;;;;;-5.12;77.75;100337.17;106256;1279;24417;-81
2022/01/12 06:36:30;;;;;;;19.40;9.10;;;;;;;-5.17;78.34;100335.84;106808;1277;138152;-81
2022/01/12 06:38:57;;;;;;;20.10;9.10;;;;;;;-5.17;77.86;100334.81;106746;1277;22535;-81
2022/01/12 06:41:25;;;;;;;21.10;8.70;;;;;;;-5.17;77.82;100337.63;106263;1278;138376;-81
2022/01/12 06:43:53;;;;;;;23.90;10.80;;;;;;;-5.17;77.39;100334.25;106242;1278;22550;-82
2022/01/12 06:46:25;;;;;;;23.30;11.00;;;;;;;-5.16;77.52;100336.33;106633;1278;22563;-82
2022/01/12 06:48:51;;;;;;;19.40;9.20;;;;;;;-5.12;77.45;100340.88;106550;1278;138981;-82
2022/01/12 06:51:18;;;;;;;23.80;10.80;;;;;;;-5.06;77.32;100344.38;106348;1278;22553;-81
2022/01/12 06:53:45;;;;;;;26.00;11.40;;;;;;;-5.01;77.38;100344.40;106177;1276;138043;-81
2022/01/12 06:56:15;;;;;;;21.20;10.10;;;;;;;-4.96;77.62;100349.91;106196;1277;22630;-81
2022/01/12 06:58:44;;;;;;;26.30;11.10;;;;;;;-4.93;77.67;100349.38;106003;1279;22587;-81
2022/01/12 07:01:11;;;;;;;27.20;11.50;;;;;;;-4.90;77.42;100350.61;106209;1278;137940;-81
2022/01/12 07:03:40;;;;;;;24.40;10.40;;;;;;;-4.86;77.32;100352.67;106173;1278;24289;-80
2022/01/12 07:06:06;;;;;;;23.90;10.70;;;;;;;-4.85;77.08;100357.91;106706;1278;138349;-81
2022/01/12 07:08:34;;;;;;;25.60;10.80;;;;;;;-4.84;77.25;100359.64;107284;1277;22567;-81
2022/01/12 07:11:01;;;;;;;22.10;9.20;;;;;;;-4.83;77.29;100359.20;107674;1277;138349;-81
2022/01/12 07:13:28;;;;;;;24.70;10.40;;;;;;;-4.84;77.24;100363.30;107071;1277;23383;-81
2022/01/12 07:15:56;;;;;;;26.70;11.80;;;;;;;-4.82;77.01;100366.77;106739;1277;23382;-81
2022/01/12 07:18:25;;;;;;;24.00;10.00;;;;;;;-4.81;77.08;100368.27;106417;1277;138158;-81
2022/01/12 07:20:52;;;;;;;30.60;13.50;;;;;;;-4.83;76.89;100370.34;106358;1278;25261;-81
2022/01/12 07:23:18;;;;;;;24.80;11.70;;;;;;;-4.84;76.73;100370.55;106362;1277;139034;-81
2022/01/12 07:25:45;;;;;;;27.50;10.70;;;;;;;-4.82;76.79;100359.33;106694;1277;22716;-81
2022/01/12 07:28:11;;;;;;;25.50;12.20;;;;;;;-4.80;76.77;100354.90;106534;1278;22630;-81
2022/01/12 07:30:37;;;;;;;21.20;10.10;;;;;;;-4.75;76.76;100358.52;106392;1277;138655;-80
2022/01/12 07:33:03;;;;;;;25.90;10.80;;;;;;;-4.69;76.67;100359.02;106536;1277;24241;-81
2022/01/12 07:35:30;;;;;;;26.30;11.00;;;;;;;-4.68;76.39;100358.08;106200;1279;138308;-81
2022/01/12 07:37:57;;;;;;;29.00;12.10;;;;;;;-4.66;76.58;100368.55;106392;1277;22569;-81
2022/01/12 07:40:23;;;;;;;18.20;7.90;;;;;;;-4.65;76.38;100374.67;106624;1277;22574;-81
2022/01/12 07:42:51;;;;;;;25.10;10.00;;;;;;;-4.69;75.94;100379.73;106253;1279;138278;-80
2022/01/12 07:45:19;;;;;;;23.10;10.90;;;;;;;-4.79;75.42;100381.75;106320;1278;23471;-81
2022/01/12 07:47:45;;;;;;;25.60;11.80;;;;;;;-4.85;75.48;100384.46;106264;1278;139248;-81
2022/01/12 07:50:12;;;;;;;28.70;12.20;;;;;;;-4.86;75.55;100386.69;106301;1278;24309;-81
2022/01/12 07:52:38;;;;;;;29.00;11.60;;;;;;;-4.86;76.02;100382.98;106578;1277;23353;-82
2022/01/12 07:55:06;;;;;;;26.60;12.10;;;;;;;-4.85;76.26;100375.81;106323;1277;138009;-82
2022/01/12 07:57:33;;;;;;;25.70;11.60;;;;;;;-4.81;76.44;100378.38;106287;1279;22569;-81
2022/01/12 08:00:00;;;;;;;32.70;10.60;;;;;;;-4.76;76.55;100374.52;106223;1278;138266;-81
2022/01/12 08:02:26;;;;;;;30.30;11.80;;;;;;;-4.74;76.01;100383.92;106493;1278;22565;-81
2022/01/12 08:04:52;;;;;;;23.60;11.90;;;;;;;-4.73;75.90;100385.98;106453;1277;138690;-80
2022/01/12 08:07:19;;;;;;;26.10;11.90;;;;;;;-4.70;76.16;100383.31;106480;1277;22559;-81
2022/01/12 08:09:45;;;;;;;25.20;10.10;;;;;;;-4.67;76.04;100378.15;106318;1277;22545;-81
2022/01/12 08:12:11;;;;;;;24.10;11.50;;;;;;;-4.66;75.84;100387.14;106240;1280;139144;-81
2022/01/12 08:14:38;;;;;;;24.10;11.00;;;;;;;-4.71;75.34;100381.48;106861;1277;25098;-81
2022/01/12 08:17:04;;;;;;;24.10;9.90;;;;;;;-4.78;75.27;100378.88;106129;1281;140065;-81
2022/01/12 08:19:34;;;;;;;24.60;11.50;;;;;;;-4.83;74.70;100382.95;106298;1281;22576;-81
2022/01/12 08:22:01;;;;;;;25.80;10.70;;;;;;;-4.89;75.02;100388.61;106438;1278;25515;-81
2022/01/12 08:24:27;;;;;;;23.70;9.60;;;;;;;-4.91;75.31;100387.19;106109;1281;138157;-81
2022/01/12 08:26:54;;;;;;;20.50;8.50;;;;;;;-4.95;75.00;100386.54;106279;1277;22550;-81
2022/01/12 08:29:20;;;;;;;21.50;9.50;;;;;;;-5.02;74.91;100392.48;106186;1277;138696;-81
2022/01/12 08:31:46;;;;;;;25.00;10.30;;;;;;;-5.07;75.21;100399.88;106274;1278;22635;-81
2022/01/12 08:34:13;;;;;;;21.80;9.60;;;;;;;-5.06;75.17;100400.00;106572;1277;22569;-81
2022/01/12 08:36:41;;;;;;;25.60;10.60;;;;;;;-5.03;74.88;100395.02;106460;1277;137985;-81
2022/01/12 08:39:08;;;;;;;26.40;10.10;;;;;;;-4.98;75.26;100401.26;106338;1278;22554;-81
2022/01/12 08:41:36;;;;;;;25.70;11.60;;;;;;;-4.96;75.07;100405.89;106674;1278;138080;-80
2022/01/12 08:44:08;;;;;;;24.50;10.10;;;;;;;-4.96;75.12;100398.83;106288;1278;25556;-81
2022/01/12 08:46:36;;;;;;;23.30;11.20;;;;;;;-4.95;74.83;100398.06;106532;1277;138973;-81
2022/01/12 08:49:03;;;;;;;32.30;13.00;;;;;;;-4.90;75.11;100396.64;107117;1277;22794;-81
2022/01/12 08:51:30;;;;;;;30.60;12.90;;;;;;;-4.82;75.30;100400.21;106542;1278;22575;-81
2022/01/12 08:53:56;;;;;;;33.50;13.30;;;;;;;-4.76;74.95;100406.38;106364;1278;138061;-81
2022/01/12 08:56:23;;;;;;;25.80;12.70;;;;;;;-4.68;75.20;100414.23;106836;1277;23399;-80
2022/01/12 08:58:50;;;;;;;26.30;12.60;;;;;;;-4.60;75.27;100417.27;106329;1278;138490;-82
2022/01/12 09:01:17;;;;;;;29.20;12.60;;;;;;;-4.53;75.37;100413.08;106654;1277;25346;-80
2022/01/12 09:03:43;;;;;;;29.10;11.40;;;;;;;-4.45;75.15;100411.84;106751;1277;22693;-81
2022/01/12 09:06:10;;;;;;;27.50;12.10;;;;;;;-4.41;74.71;100411.42;106438;1277;138301;-81
2022/01/12 09:08:41;;;;;;;30.40;12.80;;;;;;;-4.41;74.13;100409.98;106355;1277;24241;-80
2022/01/12 09:11:09;;;;;;;31.30;12.30;;;;;;;-4.41;74.42;100410.70;106224;1278;138809;-81
2022/01/12 09:13:35;;;;;;;30.40;11.80;;;;;;;-4.42;74.47;100410.17;106673;1277;22681;-81
2022/01/12 09:16:06;;;;;;;28.00;12.60;;;;;;;-4.43;74.39;100410.59;106276;1278;25405;-80
2022/01/12 09:18:37;;;;;;;26.20;10.90;;;;;;;-4.42;74.54;100407.56;106143;1278;138717;-81
2022/01/12 09:21:04;;;;;;;24.20;10.30;;;;;;;-4.41;74.67;100404.64;106786;1277;23042;-80
2022/01/12 09:23:31;;;;;;;27.90;11.80;;;;;;;-4.39;74.60;100408.59;106436;1278;138445;-80
2022/01/12 09:25:57;;;;;;;25.90;11.50;;;;;;;-4.38;74.61;100407.49;106388;1278;22621;-81
2022/01/12 09:28:23;;;;;;;30.10;13.00;;;;;;;-4.37;74.03;100401.42;106863;1277;139346;-80
2022/01/12 09:30:54;;;;;;;32.90;13.40;;;;;;;-4.40;73.92;100406.19;106569;1279;22572;-80
2022/01/12 09:33:21;;;;;;;29.20;10.00;;;;;;;-4.38;73.77;100400.59;106212;1277;24296;-78
2022/01/12 09:35:49;;;;;;;19.20;8.90;;;;;;;-4.40;73.83;100398.90;106145;1277;140279;-83
2022/01/12 09:38:18;;;;;;;30.30;11.20;;;;;;;-4.48;73.66;100401.76;106294;1281;22543;-78
2022/01/12 09:40:45;;;;;;;28.10;12.40;;;;;;;-4.55;74.02;100399.77;106025;1278;138336;-81
2022/01/12 09:43:12;;;;;;;24.00;9.70;;;;;;;-4.59;73.82;100392.74;106460;1277;24289;-80
2022/01/12 09:45:43;;;;;;;33.20;13.20;;;;;;;-4.62;73.93;100391.86;106263;1277;24288;-84
2022/01/12 09:48:10;;;;;;;28.60;11.20;;;;;;;-4.62;74.24;100384.25;104981;1278;1318815;-80
2022/01/12 09:50:37;;;;;;;24.70;10.00;;;;;;;-4.59;74.00;100374.13;106161;1277;23122;-78
2022/01/12 09:53:04;;;;;;;30.50;12.70;;;;;;;-4.56;74.21;100371.46;106243;1277;138436;-81
2022/01/12 09:55:30;;;;;;;37.00;13.40;;;;;;;-4.54;73.99;100367.93;105815;1277;25367;-82
2022/01/12 09:57:56;;;;;;;28.30;11.10;;;;;;;-4.49;74.20;100359.82;106995;1277;22547;-81
2022/01/12 10:00:26;;;;;;;27.90;11.70;;;;;;;-4.46;73.73;100349.87;106280;1277;138849;-83
2022/01/12 10:02:52;;;;;;;;;;;;;;;-4.44;73.70;100344.23;106873;1277;23250;-83
2022/01/12 10:05:29;;;;;;;34.50;12.80;;;;;;;-4.41;74.03;100334.98;106802;1277;124764;-83
2022/01/12 10:08:07;;;;;;;36.40;14.10;;;;;;;-4.36;74.07;100332.39;107050;1277;22581;-85
2022/01/12 10:10:33;;;;;;;29.90;13.50;;;;;;;-4.32;73.82;100329.63;106704;1277;138524;-84
2022/01/12 10:13:00;;;;;;;28.90;13.00;;;;;;;-4.27;73.82;100336.36;106211;1277;22635;-83
2022/01/12 10:15:29;;;;;;;30.00;13.40;;;;;;;-4.20;73.40;100338.02;106152;1277;22692;-83
2022/01/12 10:18:02;;;;;;;26.20;12.20;;;;;;;-4.12;73.32;100336.41;105925;1278;138012;-83
2022/01/12 10:20:30;;;;;;;32.30;14.80;;;;;;;-4.06;72.98;100333.48;106079;1277;24406;-84
2022/01/12 10:23:02;;;;;;;27.50;10.90;;;;;;;-4.02;72.93;100333.76;105979;1278;138917;-84
2022/01/12 10:25:30;;;;;;;26.80;11.60;;;;;;;-4.05;73.04;100339.33;106290;1277;23178;-84
2022/01/12 10:27:57;;;;;;;25.90;12.20;;;;;;;-4.09;72.61;100350.05;106045;1278;22665;-84
2022/01/12 10:30:26;;;;;;;27.40;12.90;;;;;;;-4.20;72.22;100346.16;106194;1277;138194;-84
2022/01/12 10:33:09;;;;;;;32.40;12.40;;;;;;;-4.29;72.37;100352.80;106194;1278;22719;-84
2022/01/12 10:35:42;;;;;;;24.40;10.40;;;;;;;-4.37;72.69;100356.88;106279;1278;138856;-84
2022/01/12 10:38:09;;;;;;;29.60;12.30;;;;;;;-4.45;72.66;100362.16;106426;1277;22596;-84
2022/01/12 10:40:54;;;;;;;27.00;11.90;;;;;;;-4.52;72.96;100362.30;106225;1277;139127;-84
2022/01/12 10:43:47;;;;;;;28.00;12.80;;;;;;;-4.55;73.10;100357.77;106388;1277;22788;-84
2022/01/12 10:46:19;;;;;;;22.60;9.70;;;;;;;-4.56;72.98;100345.23;106352;1277;22586;-84
2022/01/12 10:48:48;;;;;;;34.30;13.70;;;;;;;-4.54;72.93;100339.78;106621;1277;137875;-85
2022/01/12 10:51:26;;;;;;;25.10;11.40;;;;;;;-4.51;73.52;100343.12;106291;1277;25345;-84
2022/01/12 10:54:00;;;;;;;35.80;15.50;;;;;;;-4.49;73.22;100337.16;106050;1277;138250;-85
2022/01/12 10:56:26;;;;;;;34.20;13.20;;;;;;;-4.47;73.09;100334.67;106209;1277;22766;-85
2022/01/12 10:58:55;;;;;;;34.50;13.20;;;;;;;-4.45;73.25;100337.01;106333;1277;138565;-86
2022/01/12 11:01:25;;;;;;;31.00;13.90;;;;;;;-4.42;73.20;100334.14;106625;1277;24349;-86
2022/01/12 11:03:52;;;;;;;26.90;11.10;;;;;;;-4.38;73.61;100326.45;106664;1277;24228;-85
2022/01/12 11:06:19;;;;;;;31.20;13.60;;;;;;;-4.36;73.31;100322.60;106145;1277;138517;-85
2022/01/12 11:08:49;;;;;;;30.30;12.60;;;;;;;-4.37;73.15;100333.16;106200;1277;22551;-85
2022/01/12 11:11:17;;;;;;;29.80;13.30;;;;;;;-4.39;73.11;100331.64;106437;1277;141206;-84
2022/01/12 11:13:45;;;;;;;32.20;13.60;;;;;;;-4.33;72.71;100330.54;106450;1277;26501;-84
2022/01/12 11:16:12;;;;;;;32.20;13.90;;;;;;;-4.27;72.23;100334.91;106141;1279;22569;-84
2022/01/12 11:18:39;;;;;;;35.40;13.30;;;;;;;-4.22;72.57;100336.40;106158;1277;138301;-84
2022/01/12 11:21:24;;;;;;;29.20;13.30;;;;;;;-4.16;72.77;100333.13;106166;1277;22665;-83
2022/01/12 11:23:51;;;;;;;31.20;13.60;;;;;;;-4.11;72.39;100320.17;106490;1277;138439;-83
2022/01/12 11:26:23;;;;;;;32.00;13.20;;;;;;;-4.07;72.56;100319.20;106137;1277;22565;-83
2022/01/12 11:28:51;;;;;;;34.60;12.60;;;;;;;-4.09;72.25;100316.34;105859;1279;138583;-83
2022/01/12 11:31:28;;;;;;;33.20;15.20;;;;;;;-4.13;72.07;100316.80;106435;1278;25365;-83
2022/01/12 11:33:55;;;;;;;45.30;15.40;;;;;;;-4.17;72.44;100325.92;106127;1278;22613;-83
2022/01/12 11:36:39;;;;;;;27.40;12.00;;;;;;;-4.21;72.25;100326.91;106110;1277;138798;-83
2022/01/12 11:39:14;;;;;;;33.80;12.80;;;;;;;-4.24;71.89;100321.64;106136;1277;25424;-84
2022/01/12 11:41:47;;;;;;;29.90;13.80;;;;;;;-4.24;71.79;100313.96;106326;1277;138580;-83
2022/01/12 11:44:17;;;;;;;29.10;11.80;;;;;;;-4.21;72.50;100309.86;106287;1277;22573;-83
2022/01/12 11:46:46;;;;;;;29.10;13.30;;;;;;;-4.17;72.00;100308.20;106442;1277;141620;-83
2022/01/12 11:49:27;;;;;;;31.00;11.30;;;;;;;-4.12;71.74;100302.91;106493;1277;22581;-84
2022/01/12 11:51:55;;;;;;;32.40;13.80;;;;;;;-4.08;71.64;100304.73;106028;1279;22644;-83
2022/01/12 11:54:29;;;;;;;28.90;12.20;;;;;;;-4.04;71.37;100307.10;106136;1277;138353;-83
2022/01/12 11:57:02;;;;;;;32.30;12.80;;;;;;;-4.02;70.92;100302.20;106064;1279;23311;-83
2022/01/12 11:59:30;;;;;;;27.40;11.80;;;;;;;-4.03;71.02;100292.66;106463;1278;138793;-83
2022/01/12 12:02:14;;;;;;;26.10;10.80;;;;;;;-4.04;70.49;100286.02;106286;1278;22628;-83
2022/01/12 12:04:54;;;;;;;27.70;11.10;;;;;;;-4.03;70.41;100282.42;106370;1277;138506;-83
2022/01/12 12:07:22;;;;;;;28.20;12.10;;;;;;;-4.03;70.04;100286.10;106209;1277;22634;-83
2022/01/12 12:09:56;;;;;;;31.60;11.40;;;;;;;-3.97;70.25;100288.56;106295;1277;22570;-82
2022/01/12 12:12:28;;;;;;;27.00;10.90;;;;;;;-3.90;70.21;100296.42;105966;1278;138085;-82
2022/01/12 12:14:58;;;;;;;27.50;10.80;;;;;;;-3.89;69.48;100296.02;106338;1276;24226;-82
2022/01/12 12:17:32;;;;;;;37.10;13.00;;;;;;;-3.93;69.50;100293.44;106310;1276;138244;-82
2022/01/12 12:20:00;;;;;;;28.90;13.60;;;;;;;-3.96;69.80;100302.50;105813;1278;22670;-84
2022/01/12 12:22:31;;;;;;;35.80;13.00;;;;;;;-3.94;70.23;100306.66;106051;1277;139027;-84
2022/01/12 12:25:02;;;;;;;27.20;11.70;;;;;;;-3.93;69.89;100309.55;106209;1277;24396;-83
2022/01/12 12:27:30;;;;;;;33.20;13.30;;;;;;;-3.93;69.77;100306.02;106343;1277;24323;-83
2022/01/12 12:29:58;;;;;;;32.50;13.90;;;;;;;-3.93;69.80;100309.75;106098;1278;138347;-84
2022/01/12 12:32:49;;;;;;;28.90;12.60;;;;;;;-3.97;70.33;100312.32;106404;1277;22574;-83
2022/01/12 12:35:34;;;;;;;36.90;13.50;;;;;;;-3.98;70.68;100304.07;106009;1277;139041;-83
2022/01/12 12:38:03;;;;;;;33.10;12.30;;;;;;;-3.96;70.78;100302.00;106096;1277;22562;-82